Time;durP1;ratioP1;P1;durP2;ratioP2;P2;SDS_P1;SDS_P2;PMS_P1;PMS_P2;Temp;Humidity;BMP_temperature;BMP_pressure;BME280_temperature;BME280_humidity;BME280_pressure;Samples;Min_cycle;Max_cycle;Signal;HPM_P1;HPM_P2
2023/04/22 00:02:01;;;;;;;13.13;5.72;;;;;;;-148.88;77.35;75427.88;5031129;28;20452;-87
2023/04/22 00:04:26;;;;;;;10.98;5.55;;;;;;;-148.88;78.03;75431.94;5032508;28;20494;-87
2023/04/22 00:06:51;;;;;;;9.93;5.53;;;;;;;-148.88;79.15;75450.22;5032456;28;20391;-88
2023/04/22 00:09:17;;;;;;;10.77;6.20;;;;;;;-148.88;80.36;75460.38;5032617;28;20120;-88
2023/04/22 00:11:42;;;;;;;12.35;6.63;;;;;;;-148.88;82.16;75490.84;5032306;28;20546;-87
2023/04/22 00:14:07;;;;;;;10.68;7.32;;;;;;;-148.88;82.57;75482.72;5030927;28;20116;-87
2023/04/22 00:16:33;;;;;;;13.35;7.95;;;;;;;-148.88;83.13;75478.66;5031939;28;20033;-87
2023/04/22 00:18:58;;;;;;;16.30;8.95;;;;;;;-148.88;82.67;75480.69;5032160;28;20033;-88
2023/04/22 00:21:23;;;;;;;11.63;7.30;;;;;;;-148.88;81.92;75476.63;5031914;28;20021;-88
2023/04/22 00:23:48;;;;;;;9.80;6.35;;;;;;;-148.88;82.31;75472.56;5032115;28;20030;-87
2023/04/22 00:26:14;;;;;;;10.68;6.18;;;;;;;-148.88;81.90;75464.44;5030742;28;20057;-88
2023/04/22 00:28:39;;;;;;;8.27;5.70;;;;;;;-148.88;81.30;75454.28;5032453;28;20545;-88
2023/04/22 00:31:04;;;;;;;9.65;5.47;;;;;;;-148.88;81.03;75456.31;5031432;28;20116;-88
2023/04/22 00:33:30;;;;;;;8.40;5.35;;;;;;;-148.88;79.83;75448.19;5032590;28;20032;-88
2023/04/22 00:35:55;;;;;;;9.00;5.40;;;;;;;-148.88;78.92;75440.06;5036232;28;20025;-87
2023/04/22 00:38:21;;;;;;;9.25;5.40;;;;;;;-148.88;78.87;75440.06;5036114;28;20029;-88
2023/04/22 00:40:46;;;;;;;7.75;5.07;;;;;;;-148.88;79.28;75442.09;5036336;28;20049;-88
2023/04/22 00:43:12;;;;;;;8.30;5.50;;;;;;;-148.88;79.42;75431.94;5036088;28;20021;-87
2023/04/22 00:45:38;;;;;;;7.60;5.07;;;;;;;-148.88;80.10;75440.06;5036210;28;20029;-88
2023/04/22 00:48:04;;;;;;;8.98;5.75;;;;;;;-148.88;80.42;75436.00;5036295;28;20030;-88
2023/04/22 00:50:29;;;;;;;8.75;5.40;;;;;;;-148.88;80.50;75438.03;5036487;28;20021;-88
2023/04/22 00:52:54;;;;;;;11.25;5.65;;;;;;;-148.88;80.61;75444.13;5036018;28;20036;-88
2023/04/22 00:55:20;;;;;;;7.68;5.57;;;;;;;-148.88;80.60;75444.13;5037978;28;20112;-88
2023/04/22 00:57:48;;;;;;;8.57;5.35;;;;;;;-148.88;80.63;75448.19;5035904;28;20033;-87
2023/04/22 01:00:13;;;;;;;9.10;6.00;;;;;;;-148.88;80.72;75452.25;5034468;28;20028;-88
2023/04/22 01:02:39;;;;;;;15.65;8.27;;;;;;;-148.88;80.08;75456.31;5035692;28;20029;-87
2023/04/22 01:05:08;;;;;;;14.13;7.43;;;;;;;-148.88;79.46;75452.25;5035760;28;20478;-87
2023/04/22 01:07:34;;;;;;;10.70;6.97;;;;;;;-148.88;80.14;75466.47;5036267;28;20105;-87
2023/04/22 01:09:59;;;;;;;10.57;6.32;;;;;;;-148.88;80.53;75464.44;5035969;28;20029;-87
2023/04/22 01:12:24;;;;;;;14.57;6.40;;;;;;;-148.88;80.59;75470.53;5036033;28;20468;-87
2023/04/22 01:14:50;;;;;;;11.55;6.47;;;;;;;-148.88;81.21;75464.44;5035539;28;20084;-87
2023/04/22 01:17:18;;;;;;;10.73;6.32;;;;;;;-148.88;81.35;75464.44;5035627;28;20359;-88
2023/04/22 01:19:44;;;;;;;6.90;5.50;;;;;;;-148.88;81.13;75468.50;5035437;28;20483;-87
2023/04/22 01:22:12;;;;;;;9.85;6.88;;;;;;;-148.88;81.51;75464.44;5035612;28;20025;-87
2023/04/22 01:24:38;;;;;;;10.40;6.43;;;;;;;-148.88;81.58;75468.50;5035377;28;20029;-88
2023/04/22 01:27:03;;;;;;;9.50;6.38;;;;;;;-148.88;81.41;75482.72;5035535;28;20025;-88
2023/04/22 01:29:29;;;;;;;10.15;6.53;;;;;;;-148.88;82.03;75480.69;5033638;28;20053;-88
2023/04/22 01:31:55;;;;;;;11.30;6.60;;;;;;;-148.88;82.99;75492.88;5033747;28;20028;-87
2023/04/22 01:34:21;;;;;;;9.32;6.00;;;;;;;-148.88;83.48;75505.06;5034749;28;20032;-88
2023/04/22 01:36:46;;;;;;;10.32;5.93;;;;;;;-148.88;84.13;75501.00;5034884;28;20053;-87
2023/04/22 01:39:12;;;;;;;8.30;5.78;;;;;;;-148.88;84.07;75511.16;5035290;28;20061;-87
2023/04/22 01:41:37;;;;;;;11.00;6.13;;;;;;;-148.88;83.64;75509.13;5035039;28;20025;-88
2023/04/22 01:44:03;;;;;;;9.02;6.18;;;;;;;-148.88;84.26;75515.22;5034956;28;20022;-88
2023/04/22 01:46:29;;;;;;;7.15;6.00;;;;;;;-148.88;84.70;75521.31;5034362;28;20043;-88
2023/04/22 01:48:54;;;;;;;9.68;5.80;;;;;;;-148.88;84.17;75521.31;5033502;28;20025;-88
2023/04/22 01:51:19;;;;;;;9.77;5.75;;;;;;;-148.88;84.78;75529.44;5034604;28;20391;-87
2023/04/22 01:53:47;;;;;;;10.02;6.05;;;;;;;-148.88;84.98;75541.63;5034812;28;20017;-87
2023/04/22 01:56:12;;;;;;;11.27;5.38;;;;;;;-148.88;85.79;75541.63;5034435;28;20191;-87
2023/04/22 01:58:38;;;;;;;8.88;5.82;;;;;;;-148.88;85.88;75543.66;5034339;28;20108;-87
2023/04/22 02:01:03;;;;;;;10.88;6.43;;;;;;;-148.88;85.94;75549.75;5034560;28;20480;-87
2023/04/22 02:03:29;;;;;;;8.25;6.00;;;;;;;-148.88;85.90;75553.81;5034548;28;20066;-89
2023/04/22 02:05:54;;;;;;;10.50;6.15;;;;;;;-148.88;86.79;75551.78;5032920;28;20057;-88
2023/04/22 02:08:19;;;;;;;8.60;5.88;;;;;;;-148.88;86.63;75557.88;5034609;28;20483;-88
2023/04/22 02:10:45;;;;;;;8.75;6.00;;;;;;;-148.88;87.30;75555.84;5034166;28;20033;-88
2023/04/22 02:13:10;;;;;;;9.23;6.70;;;;;;;-148.88;87.25;75551.78;5034364;28;20486;-88
2023/04/22 02:15:35;;;;;;;9.52;6.63;;;;;;;-148.88;87.55;75553.81;5034141;28;20029;-88
2023/04/22 02:18:01;;;;;;;9.15;6.13;;;;;;;-148.88;87.86;75549.75;5034093;28;20396;-88
2023/04/22 02:20:26;;;;;;;9.35;6.13;;;;;;;-148.88;87.56;75559.91;5034276;28;20104;-88
2023/04/22 02:22:51;;;;;;;9.68;6.03;;;;;;;-148.88;87.22;75553.81;5032812;28;20022;-88
2023/04/22 02:25:17;;;;;;;10.55;6.45;;;;;;;-148.88;87.66;75545.69;5034394;28;20364;-88
2023/04/22 02:27:42;;;;;;;8.90;6.28;;;;;;;-148.88;87.45;75551.78;5034218;28;20087;-87
2023/04/22 02:30:08;;;;;;;12.57;6.40;;;;;;;-148.88;87.83;75551.78;5034129;28;20033;-90
2023/04/22 02:32:35;;;;;;;9.70;5.78;;;;;;;-148.88;87.60;75551.78;5034392;28;20021;-93
2023/04/22 02:35:02;;;;;;;10.73;5.75;;;;;;;-148.88;87.13;75557.88;5032946;28;20029;-90
2023/04/22 02:37:27;;;;;;;10.00;5.88;;;;;;;-148.88;87.35;75557.88;5034082;28;20513;-91
2023/04/22 02:39:52;;;;;;;10.27;6.20;;;;;;;-148.88;87.57;75561.94;5034275;28;20029;-90
2023/04/22 02:42:17;;;;;;;9.90;6.05;;;;;;;-148.88;87.67;75563.97;5035678;28;20025;-91
2023/04/22 02:44:43;;;;;;;10.30;6.07;;;;;;;-148.88;88.10;75561.94;5034063;28;20048;-89
2023/04/22 02:47:08;;;;;;;10.30;6.03;;;;;;;-148.88;87.78;75559.91;5033818;28;20386;-90
2023/04/22 02:49:33;;;;;;;8.02;5.95;;;;;;;-148.88;87.63;75559.91;5032523;28;20083;-90
2023/04/22 02:51:59;;;;;;;11.50;6.30;;;;;;;-148.88;87.33;75543.66;5033819;28;20018;-90
2023/04/22 02:54:24;;;;;;;9.88;5.88;;;;;;;-148.88;87.14;75537.56;5034332;28;20039;-90
2023/04/22 02:56:49;;;;;;;10.48;6.15;;;;;;;-148.88;87.21;75545.69;5034528;28;20112;-91
2023/04/22 02:59:15;;;;;;;9.68;6.18;;;;;;;-148.88;86.65;75541.63;5034129;28;20029;-91
2023/04/22 03:01:40;;;;;;;9.43;5.68;;;;;;;-148.88;87.11;75537.56;5033501;28;20025;-89
2023/04/22 03:04:05;;;;;;;11.23;5.75;;;;;;;-148.88;86.52;75525.38;5033649;28;20076;-90
2023/04/22 03:06:31;;;;;;;10.13;5.68;;;;;;;-148.88;86.42;75515.22;5032461;28;20428;-90
2023/04/22 03:08:57;;;;;;;12.38;6.18;;;;;;;-148.88;86.00;75509.13;5032852;28;20021;-90
2023/04/22 03:11:22;;;;;;;9.23;5.72;;;;;;;-148.88;86.78;75519.28;5033665;28;20041;-89
2023/04/22 03:13:48;;;;;;;10.15;6.00;;;;;;;-148.88;86.86;75517.25;5033581;28;20114;-88
2023/04/22 03:16:13;;;;;;;11.13;5.30;;;;;;;-148.88;86.96;75517.25;5033350;28;20033;-89
2023/04/22 03:18:38;;;;;;;8.43;5.60;;;;;;;-148.88;87.46;75515.22;5033357;28;20117;-89
2023/04/22 03:21:04;;;;;;;8.73;5.82;;;;;;;-148.88;87.00;75515.22;5033571;28;20021;-89
2023/04/22 03:23:29;;;;;;;8.23;5.53;;;;;;;-148.88;87.25;75509.13;5033337;28;20021;-90
2023/04/22 03:25:55;;;;;;;10.35;6.00;;;;;;;-148.88;87.53;75509.13;5033781;28;20025;-92
2023/04/22 03:28:20;;;;;;;9.10;5.57;;;;;;;-148.88;87.50;75505.06;5033865;28;20434;-90
2023/04/22 03:30:46;;;;;;;8.07;5.68;;;;;;;-148.88;87.74;75501.00;5033602;28;20032;-92
2023/04/22 03:33:11;;;;;;;12.27;5.55;;;;;;;-148.88;87.97;75492.88;5032454;28;20021;-91
2023/04/22 03:35:36;;;;;;;7.82;5.57;;;;;;;-148.88;87.90;75486.78;5032914;28;20061;-87
2023/04/22 03:38:02;;;;;;;12.00;5.90;;;;;;;-148.88;88.22;75488.81;5035437;28;20207;-88
2023/04/22 03:40:27;;;;;;;9.85;5.95;;;;;;;-148.88;88.08;75474.59;5034834;28;20033;-90
2023/04/22 03:42:52;;;;;;;9.65;6.05;;;;;;;-148.88;88.29;75480.69;5034915;28;20021;-89
2023/04/22 03:45:18;;;;;;;8.77;5.75;;;;;;;-148.88;88.31;75478.66;5086735;22;20461;-84
2023/04/22 03:47:43;;;;;;;12.25;5.90;;;;;;;-148.88;88.33;75472.56;5055197;28;20032;-83
2023/04/22 03:50:10;;;;;;;10.15;6.68;;;;;;;-148.88;89.40;75482.72;5055871;28;20467;-83
2023/04/22 03:52:35;;;;;;;8.68;6.43;;;;;;;-148.88;89.49;75490.84;5074576;28;20154;-87
2023/04/22 03:55:00;;;;;;;13.57;6.72;;;;;;;-148.88;89.58;75496.94;5057701;28;20155;-86
2023/04/22 03:57:25;;;;;;;9.00;6.65;;;;;;;-148.88;89.97;75507.09;5056618;28;20391;-86
2023/04/22 03:59:51;;;;;;;11.75;6.40;;;;;;;-148.88;90.18;75517.25;5057787;28;20040;-86
2023/04/22 04:02:16;;;;;;;8.23;6.05;;;;;;;-148.88;91.41;75529.44;5056254;28;20052;-85
2023/04/22 04:04:41;;;;;;;10.68;6.47;;;;;;;-148.88;91.46;75523.34;5055905;28;20098;-85
2023/04/22 04:07:07;;;;;;;7.07;5.72;;;;;;;-148.88;91.47;75509.13;5056240;28;20025;-85
2023/04/22 04:09:32;;;;;;;8.40;6.10;;;;;;;-148.88;92.26;75507.09;5058976;28;20029;-86
2023/04/22 04:11:58;;;;;;;9.55;6.00;;;;;;;-148.88;92.00;75501.00;5059601;28;20025;-87
2023/04/22 04:14:23;;;;;;;10.60;5.82;;;;;;;-148.88;91.75;75501.00;5059531;28;20025;-87
2023/04/22 04:16:48;;;;;;;10.30;5.95;;;;;;;-148.88;91.34;75492.88;5061032;28;20082;-86
2023/04/22 04:19:13;;;;;;;11.18;6.20;;;;;;;-148.88;91.24;75492.88;5058796;28;20056;-86
2023/04/22 04:21:39;;;;;;;9.88;5.95;;;;;;;-148.88;91.30;75494.91;5058923;28;20051;-87
2023/04/22 04:24:05;;;;;;;11.10;6.18;;;;;;;-148.88;91.72;75494.91;5059920;28;20029;-87
2023/04/22 04:26:31;;;;;;;7.63;5.95;;;;;;;-148.88;91.70;75492.88;5060809;28;20078;-87
2023/04/22 04:28:56;;;;;;;9.20;6.47;;;;;;;-148.88;92.00;75492.88;5061483;28;20025;-87
2023/04/22 04:31:23;;;;;;;7.35;4.47;;;;;;;-148.88;91.90;75492.88;5060737;28;20116;-86
2023/04/22 04:33:49;;;;;;;11.27;6.40;;;;;;;-148.88;91.84;75486.78;5062426;28;20036;-86
2023/04/22 04:36:14;;;;;;;10.88;5.25;;;;;;;-148.88;91.95;75486.78;5060912;28;20021;-87
2023/04/22 04:38:40;;;;;;;8.50;5.80;;;;;;;-148.88;91.73;75480.69;5060957;28;20021;-85
2023/04/22 04:41:07;;;;;;;10.43;6.68;;;;;;;-148.88;91.59;75478.66;5061945;28;20059;-86
2023/04/22 04:43:32;;;;;;;9.55;6.57;;;;;;;-148.88;91.89;75476.63;5057857;28;20450;-86
2023/04/22 04:45:58;;;;;;;9.95;7.15;;;;;;;-148.88;92.10;75476.63;5060702;28;20037;-87
2023/04/22 04:48:23;;;;;;;10.23;6.68;;;;;;;-148.88;92.01;75476.63;5059285;28;20119;-87
2023/04/22 04:50:52;;;;;;;10.07;6.10;;;;;;;-148.88;92.02;75476.63;5060678;28;20044;-87
2023/04/22 04:53:18;;;;;;;7.25;5.68;;;;;;;-148.88;92.19;75474.59;5059453;28;20475;-87
2023/04/22 04:55:44;;;;;;;8.80;6.25;;;;;;;-148.88;92.48;75464.44;5056754;28;20052;-86
2023/04/22 04:58:09;;;;;;;8.13;6.10;;;;;;;-148.88;92.50;75468.50;5058692;28;20024;-86
2023/04/22 05:00:34;;;;;;;8.40;6.63;;;;;;;-148.88;92.69;75468.50;5058620;28;20046;-86
2023/04/22 05:03:00;;;;;;;9.73;6.10;;;;;;;-148.88;92.34;75468.50;5061472;28;20490;-86
2023/04/22 05:05:25;;;;;;;9.90;5.97;;;;;;;-148.88;92.40;75464.44;5062177;28;20025;-87
2023/04/22 05:07:52;;;;;;;8.02;5.80;;;;;;;-148.88;92.35;75464.44;5060478;28;20051;-87
2023/04/22 05:10:18;;;;;;;8.88;6.38;;;;;;;-148.88;92.73;75458.34;5059118;28;20063;-87
2023/04/22 05:12:46;;;;;;;10.45;5.80;;;;;;;-148.88;93.19;75452.25;5059222;28;20070;-86
2023/04/22 05:15:14;;;;;;;10.57;6.65;;;;;;;-148.88;93.36;75444.13;5056482;28;20025;-85
2023/04/22 05:17:52;;;;;;;10.23;6.82;;;;;;;-148.88;94.00;75456.31;5056927;28;20025;-87
2023/04/22 05:20:31;;;;;;;;;;;;;;;;;;;;;
2023/04/22 05:23:06;;;;;;;9.73;6.18;;;;;;;-148.88;92.85;75450.22;5058189;28;20033;-87
2023/04/22 05:25:32;;;;;;;7.82;5.93;;;;;;;-148.88;92.77;75452.25;5058415;28;20025;-89
2023/04/22 05:28:00;;;;;;;10.82;6.65;;;;;;;-148.88;93.52;75468.50;5059257;28;20035;-87
2023/04/22 05:30:26;;;;;;;8.32;6.35;;;;;;;-148.88;92.78;75462.41;5056865;28;20044;-86
2023/04/22 05:32:51;;;;;;;8.88;6.25;;;;;;;-148.88;93.60;75472.56;5056617;28;20056;-85
2023/04/22 05:35:17;;;;;;;10.75;6.35;;;;;;;-148.88;93.88;75470.53;5060503;28;20469;-87
2023/04/22 05:37:46;;;;;;;9.88;6.70;;;;;;;-148.88;94.71;75458.34;5061947;28;20024;-86
2023/04/22 05:40:12;;;;;;;11.82;6.35;;;;;;;-148.88;94.87;75448.19;5060576;28;20029;-85
2023/04/22 05:42:37;;;;;;;8.80;6.60;;;;;;;-148.88;94.15;75440.06;5061291;28;20017;-85
2023/04/22 05:45:03;;;;;;;9.13;6.07;;;;;;;-148.88;93.74;75440.06;5060962;28;20372;-85
2023/04/22 05:47:29;;;;;;;9.82;6.38;;;;;;;-148.88;93.82;75436.00;5060423;28;20025;-85
2023/04/22 05:49:57;;;;;;;8.55;6.00;;;;;;;-148.88;94.29;75427.88;5060470;28;20025;-85
2023/04/22 05:52:25;;;;;;;10.23;6.43;;;;;;;-148.88;94.20;75423.81;5060971;28;20025;-86
2023/04/22 05:54:51;;;;;;;8.52;6.38;;;;;;;-148.88;94.07;75415.69;5059023;28;20037;-85
2023/04/22 05:57:27;;;;;;;10.50;6.65;;;;;;;-148.88;94.49;75407.56;5059084;28;20045;-86
2023/04/22 05:59:52;;;;;;;9.82;6.35;;;;;;;-148.88;95.06;75409.59;5059767;28;20092;-85
2023/04/22 06:02:18;;;;;;;6.97;6.07;;;;;;;-148.88;94.58;75405.53;5059402;28;20049;-85
2023/04/22 06:04:49;;;;;;;8.75;6.78;;;;;;;-148.88;94.65;75391.31;5058889;28;20574;-86
2023/04/22 06:07:21;;;;;;;9.27;6.50;;;;;;;-148.88;93.99;75377.09;5057409;28;20100;-85
2023/04/22 06:09:49;;;;;;;6.93;5.95;;;;;;;-148.88;93.44;75366.94;5056704;28;20029;-85
2023/04/22 06:12:15;;;;;;;8.85;6.07;;;;;;;-148.88;92.32;75360.84;5059700;28;20048;-85
2023/04/22 06:14:46;;;;;;;9.82;6.18;;;;;;;-148.88;92.26;75352.72;5058043;28;20020;-85
2023/04/22 06:17:23;;;;;;;10.27;6.05;;;;;;;-148.88;92.39;75330.38;5058221;28;20025;-86
2023/04/22 06:19:49;;;;;;;9.15;6.20;;;;;;;-148.88;92.21;75322.25;5058516;28;20025;-86
2023/04/22 06:22:20;;;;;;;8.57;5.78;;;;;;;-148.88;91.88;75310.06;5059155;28;20029;-87
2023/04/22 06:24:48;;;;;;;9.02;5.95;;;;;;;-148.88;91.01;75306.00;5058631;28;20024;-86
2023/04/22 06:27:16;;;;;;;9.10;5.65;;;;;;;-148.88;90.75;75291.78;5060807;28;20025;-85
2023/04/22 06:29:45;;;;;;;7.80;5.38;;;;;;;-148.88;90.84;75271.50;5056979;28;20086;-86
2023/04/22 06:32:10;;;;;;;8.32;5.82;;;;;;;-148.88;89.77;75253.22;5059539;28;20017;-87
2023/04/22 06:34:47;;;;;;;6.43;5.50;;;;;;;-148.88;88.85;75245.09;5059060;28;20024;-86
2023/04/22 06:37:16;;;;;;;7.10;5.45;;;;;;;-148.88;88.76;75224.78;5058799;28;20032;-85
2023/04/22 06:39:44;;;;;;;7.70;5.75;;;;;;;-148.88;87.96;75212.59;5059222;28;20028;-85
2023/04/22 06:42:18;;;;;;;10.43;5.78;;;;;;;-148.88;88.05;75202.44;5055644;28;20052;-85
2023/04/22 06:44:52;;;;;;;9.55;5.93;;;;;;;-148.88;87.65;75184.16;5057295;28;20142;-85
2023/04/22 06:47:20;;;;;;;8.18;5.72;;;;;;;-148.88;88.24;75176.03;5056059;28;20033;-85
2023/04/22 06:49:54;;;;;;;9.13;5.30;;;;;;;-148.88;87.15;75174.00;5054648;28;20471;-85
2023/04/22 06:52:20;;;;;;;8.98;5.68;;;;;;;-148.88;87.82;75147.59;5056812;28;20028;-86
2023/04/22 06:54:46;;;;;;;6.70;5.47;;;;;;;-148.88;86.52;75139.47;5056518;28;20025;-85
2023/04/22 06:57:14;;;;;;;8.98;5.30;;;;;;;-148.88;85.39;75129.31;5057894;28;20438;-85
2023/04/22 06:59:39;;;;;;;7.15;5.15;;;;;;;-148.88;85.53;75123.22;5057853;28;20084;-85
2023/04/22 07:02:08;;;;;;;7.78;5.50;;;;;;;-148.88;84.65;75104.94;5057813;28;20044;-86
2023/04/22 07:04:34;;;;;;;7.43;5.22;;;;;;;-148.88;84.94;75098.84;5057906;28;20024;-86
2023/04/22 07:07:00;;;;;;;7.40;5.10;;;;;;;-148.88;83.65;75086.69;5057493;28;20025;-86
2023/04/22 07:09:26;;;;;;;10.05;4.93;;;;;;;-148.88;83.53;75086.69;5056536;28;20060;-86
2023/04/22 07:11:57;;;;;;;8.10;5.20;;;;;;;-148.88;83.88;75078.56;5056843;28;20411;-86
2023/04/22 07:14:30;;;;;;;6.32;4.68;;;;;;;-148.88;81.48;75078.56;5059472;28;20085;-85
2023/04/22 07:16:55;;;;;;;10.02;5.38;;;;;;;-148.88;81.10;75066.38;5056225;28;20032;-85
2023/04/22 07:19:27;;;;;;;7.82;5.20;;;;;;;-148.88;80.99;75066.38;5054898;28;20025;-84
2023/04/22 07:21:55;;;;;;;7.60;4.70;;;;;;;-148.88;81.49;75056.22;5056067;28;20102;-84
2023/04/22 07:24:31;;;;;;;8.18;5.10;;;;;;;-148.88;80.59;75037.94;5054763;28;20090;-85
2023/04/22 07:26:56;;;;;;;10.65;4.80;;;;;;;-148.88;79.66;75027.78;5056563;28;20027;-86
2023/04/22 07:29:25;;;;;;;6.53;4.70;;;;;;;-148.88;79.63;75009.50;5056767;28;20107;-84
2023/04/22 07:31:50;;;;;;;6.63;4.90;;;;;;;-148.88;77.36;75003.41;5056584;28;20385;-86
2023/04/22 07:34:17;;;;;;;7.38;5.15;;;;;;;-148.88;77.97;74993.25;5056726;28;20044;-84
2023/04/22 07:36:42;;;;;;;8.30;4.78;;;;;;;-148.88;77.36;74981.06;5057425;28;20033;-86
2023/04/22 07:39:08;;;;;;;7.25;4.93;;;;;;;-148.88;77.61;74964.81;5056879;28;20132;-86
2023/04/22 07:41:37;;;;;;;8.82;5.40;;;;;;;-148.88;77.95;74954.66;5057329;28;20394;-84
2023/04/22 07:44:02;;;;;;;7.28;4.75;;;;;;;-148.88;76.10;74944.53;5056348;28;20087;-84
2023/04/22 07:46:28;;;;;;;6.85;4.68;;;;;;;-148.88;76.64;74936.41;5057015;28;20036;-84
2023/04/22 07:48:54;;;;;;;8.57;4.90;;;;;;;-148.88;76.60;74920.16;5057965;28;20056;-85
2023/04/22 07:51:24;;;;;;;6.95;4.82;;;;;;;-148.88;75.11;74912.03;5060021;28;20021;-87
2023/04/22 07:54:08;;;;;;;8.48;4.80;;;;;;;-148.88;76.72;74881.56;5054973;28;20134;-86
2023/04/22 07:56:42;;;;;;;7.90;5.10;;;;;;;-148.88;74.05;74867.34;5054182;28;20032;-84
2023/04/22 07:59:08;;;;;;;6.28;4.35;;;;;;;-148.88;73.36;74855.16;5053529;28;20078;-86
2023/04/22 08:01:51;;;;;;;6.28;4.93;;;;;;;-148.88;74.19;74824.69;5053724;28;20053;-87
2023/04/22 08:04:33;;;;;;;7.85;4.95;;;;;;;-148.88;72.65;74808.47;5054704;28;20080;-86
2023/04/22 08:07:02;;;;;;;6.53;4.43;;;;;;;-148.88;72.37;74800.34;5054390;28;20423;-86
2023/04/22 08:09:30;;;;;;;5.88;4.75;;;;;;;-148.88;72.32;74790.19;5056597;28;20432;-86
2023/04/22 08:11:56;;;;;;;5.85;4.40;;;;;;;-148.88;72.40;74751.59;5056731;28;20033;-86
2023/04/22 08:14:22;;;;;;;6.55;4.22;;;;;;;-148.88;69.41;74704.88;5058520;28;20462;-86
2023/04/22 08:16:51;;;;;;;5.97;3.90;;;;;;;-148.88;67.36;74672.41;5056729;28;20049;-86
2023/04/22 08:19:17;;;;;;;7.03;3.90;;;;;;;-148.88;64.18;74641.94;5056837;28;20021;-86
2023/04/22 08:21:43;;;;;;;6.60;3.85;;;;;;;-148.88;63.80;74639.91;5056959;28;20544;-87
2023/04/22 08:24:21;;;;;;;5.55;3.72;;;;;;;-148.88;65.78;74617.56;5057838;28;20033;-87
2023/04/22 08:26:46;;;;;;;6.53;3.83;;;;;;;-148.88;63.77;74613.50;5058025;28;20101;-85
2023/04/22 08:29:20;;;;;;;5.45;3.25;;;;;;;-148.88;63.77;74619.59;5055936;28;20053;-86
2023/04/22 08:31:45;;;;;;;4.25;3.30;;;;;;;-148.88;64.00;74619.59;5053543;28;20036;-85
2023/04/22 08:34:11;;;;;;;4.47;3.38;;;;;;;-148.88;63.46;74615.53;5054695;28;20021;-85
2023/04/22 08:36:36;;;;;;;5.57;3.50;;;;;;;-148.88;64.73;74609.44;5056349;28;20016;-86
2023/04/22 08:39:01;;;;;;;5.53;3.85;;;;;;;-148.88;64.84;74591.19;5055895;28;20424;-86
2023/04/22 08:41:27;;;;;;;4.25;3.08;;;;;;;-148.88;63.23;74579.00;5054426;28;20455;-87
2023/04/22 08:43:55;;;;;;;6.30;3.63;;;;;;;-148.88;62.57;74572.91;5054374;28;20088;-85
2023/04/22 08:46:22;;;;;;;4.40;3.63;;;;;;;-148.88;60.87;74572.91;5056337;28;20028;-85
2023/04/22 08:48:52;;;;;;;5.15;3.35;;;;;;;-148.88;61.47;74534.31;5055564;28;20025;-86
2023/04/22 08:51:17;;;;;;;3.83;2.67;;;;;;;-148.88;59.22;74509.94;5055221;28;20032;-86
2023/04/22 08:53:52;;;;;;;3.70;2.60;;;;;;;-148.88;59.66;74505.88;5056456;28;20028;-86
2023/04/22 08:56:17;;;;;;;4.78;3.10;;;;;;;-148.88;60.09;74509.94;5059775;28;20028;-83
2023/04/22 08:58:43;;;;;;;5.53;3.10;;;;;;;-148.88;59.17;74491.69;5059665;28;20025;-86
2023/04/22 09:01:08;;;;;;;5.65;3.50;;;;;;;-148.88;58.24;74489.66;5058565;28;20036;-87
2023/04/22 09:03:43;;;;;;;3.75;3.03;;;;;;;-148.88;57.41;74461.22;5059030;28;20025;-86
2023/04/22 09:06:10;;;;;;;4.05;3.03;;;;;;;-148.88;56.74;74444.97;5058727;28;20462;-84
2023/04/22 09:08:37;;;;;;;4.22;2.90;;;;;;;-148.88;56.08;74420.59;5056341;28;20021;-86
2023/04/22 09:11:03;;;;;;;4.63;3.10;;;;;;;-148.88;55.16;74396.25;5056866;28;20035;-85
2023/04/22 09:13:34;;;;;;;6.53;3.30;;;;;;;-148.88;55.95;74392.19;5058788;28;20072;-85
2023/04/22 09:15:59;;;;;;;4.47;3.33;;;;;;;-148.88;56.34;74386.09;5056730;28;20388;-86
2023/04/22 09:18:27;;;;;;;4.85;3.40;;;;;;;-148.88;54.93;74394.22;5056752;28;20029;-87
2023/04/22 09:21:04;;;;;;;6.03;3.13;;;;;;;-148.88;55.92;74375.94;5057158;28;20091;-86
2023/04/22 09:23:43;;;;;;;5.00;2.83;;;;;;;-148.88;55.06;74331.25;5056402;28;20116;-88
2023/04/22 09:26:08;;;;;;;4.47;3.03;;;;;;;-148.88;53.93;74321.13;5059626;28;20474;-85
2023/04/22 09:28:35;;;;;;;4.57;3.05;;;;;;;-148.88;53.49;74294.72;5058380;28;20120;-85
2023/04/22 09:31:02;;;;;;;6.50;3.15;;;;;;;-148.88;52.67;74294.72;5058437;28;20044;-86
2023/04/22 09:33:47;;;;;;;4.75;2.92;;;;;;;-148.88;51.83;74274.41;5057465;28;20029;-86
2023/04/22 09:36:12;;;;;;;7.68;3.35;;;;;;;-148.88;51.79;74246.00;5058700;28;20463;-87
2023/04/22 09:38:38;;;;;;;5.47;3.05;;;;;;;-148.88;51.35;74260.19;5059175;28;20021;-85
2023/04/22 09:41:08;;;;;;;3.80;3.25;;;;;;;-148.88;50.50;74248.00;5060620;28;20025;-86
2023/04/22 09:45:59;;;;;;;3.80;2.28;;;;;;;-148.88;48.93;74201.31;5038063;22;20053;-77
2023/04/22 09:48:24;;;;;;;3.00;2.10;;;;;;;-148.88;46.99;74187.09;5033931;28;20038;-77
2023/04/22 09:50:50;;;;;;;3.15;2.10;;;;;;;-148.88;46.37;74176.94;5035570;28;20018;-79
2023/04/22 09:53:18;;;;;;;3.42;1.67;;;;;;;-148.88;45.52;74146.50;5036129;28;20022;-77
2023/04/22 09:55:46;;;;;;;2.90;2.13;;;;;;;-148.88;44.40;74132.28;5034761;28;20030;-77
2023/04/22 09:58:16;;;;;;;3.70;1.92;;;;;;;-148.88;44.60;74138.38;5036339;28;20495;-77
2023/04/22 10:00:46;;;;;;;3.78;2.08;;;;;;;-148.88;46.34;74156.66;5035719;28;20041;-77
2023/04/22 10:03:12;;;;;;;3.88;1.75;;;;;;;-148.88;44.61;74162.75;5034183;28;20014;-78
2023/04/22 10:05:37;;;;;;;2.97;2.20;;;;;;;-148.88;45.09;74172.88;5034120;28;20083;-83
2023/04/22 10:08:08;;;;;;;2.67;1.88;;;;;;;-148.88;46.07;74181.00;5033624;28;20017;-77
2023/04/22 10:10:34;;;;;;;4.00;2.00;;;;;;;-148.88;45.25;74189.13;5033376;28;20443;-77
2023/04/22 10:13:00;;;;;;;4.53;2.40;;;;;;;-148.88;45.54;74174.91;5034612;28;20472;-77
2023/04/22 10:15:40;;;;;;;3.45;2.20;;;;;;;-148.88;44.85;74193.19;5033209;28;20028;-77
2023/04/22 10:18:09;;;;;;;3.78;2.20;;;;;;;-148.88;46.30;74158.69;5034822;28;20025;-77
2023/04/22 10:20:37;;;;;;;5.13;1.90;;;;;;;-148.88;45.10;74107.91;5033191;28;20037;-77
2023/04/22 10:23:04;;;;;;;5.10;2.17;;;;;;;-148.88;43.70;74083.56;5034639;28;20022;-77
2023/04/22 10:25:30;;;;;;;3.90;2.20;;;;;;;-148.88;45.32;74071.38;5034402;28;20128;-77
2023/04/22 10:28:04;;;;;;;4.03;2.00;;;;;;;-148.88;43.41;74067.31;5033062;28;20129;-77
2023/04/22 10:30:35;;;;;;;3.65;2.40;;;;;;;-148.88;44.80;74026.72;5033024;28;20086;-77
2023/04/22 10:33:19;;;;;;;3.63;2.03;;;;;;;-148.88;43.20;74022.66;5032926;28;20076;-77
2023/04/22 10:36:07;;;;;;;3.30;1.80;;;;;;;-148.88;43.26;74010.47;5033174;28;20403;-77
2023/04/22 10:38:41;;;;;;;4.28;2.25;;;;;;;-148.88;42.33;74002.34;5032728;28;20484;-78
2023/04/22 10:41:13;;;;;;;3.55;2.00;;;;;;;-148.88;42.42;74018.59;5034332;28;20048;-77
2023/04/22 10:43:42;;;;;;;3.88;2.03;;;;;;;-148.88;42.67;73990.16;5033961;28;20096;-77
2023/04/22 10:46:35;;;;;;;4.20;2.70;;;;;;;-148.88;43.13;73990.16;5032542;28;20033;-77
2023/04/22 10:49:14;;;;;;;4.43;2.50;;;;;;;-148.88;42.76;73998.28;5033792;28;20030;-77
2023/04/22 10:51:44;;;;;;;4.18;2.40;;;;;;;-148.88;43.24;73992.19;5033724;28;20025;-77
2023/04/22 10:54:28;;;;;;;4.65;1.98;;;;;;;-148.88;43.67;73973.91;5033702;28;20088;-77
2023/04/22 10:57:30;;;;;;;3.63;2.33;;;;;;;-148.88;43.58;73980.00;5033978;28;20032;-77
2023/04/22 10:59:57;;;;;;;4.75;1.92;;;;;;;-148.88;44.23;73945.50;5021385;28;20128;-77
2023/04/22 11:02:23;;;;;;;3.25;1.90;;;;;;;-148.88;43.18;73990.16;5033560;28;20068;-77
2023/04/22 11:04:49;;;;;;;7.18;2.47;;;;;;;-148.88;43.07;73973.91;5033492;28;20034;-77
2023/04/22 11:07:26;;;;;;;4.10;2.05;;;;;;;-148.88;43.13;73959.72;5033755;28;20033;-77
2023/04/22 11:09:57;;;;;;;3.40;1.90;;;;;;;-148.88;43.56;73998.28;5033812;28;20029;-77
2023/04/22 11:12:37;;;;;;;3.92;2.33;;;;;;;-148.88;42.82;73961.72;5033719;28;20025;-77
2023/04/22 11:15:15;;;;;;;6.45;2.20;;;;;;;-148.88;42.30;73961.72;5033552;28;20079;-77
2023/04/22 11:17:42;;;;;;;3.40;2.15;;;;;;;-148.88;43.23;73917.06;5031706;28;20108;-77
2023/04/22 11:20:08;;;;;;;6.07;2.30;;;;;;;-148.88;43.81;73894.75;5033684;28;20029;-77
2023/04/22 11:22:37;;;;;;;3.25;1.90;;;;;;;-148.88;42.06;73904.88;5033387;28;20022;-77